sensor_id;sensor_type;location;lat;lon;timestamp;temperature;humidity
44047;DHT22;29713;-33.888;151.150;2023-06-01T00:01:03;16.60;99.90
44047;DHT22;29713;-33.888;151.150;2023-06-01T00:03:30;16.70;99.90
44047;DHT22;29713;-33.888;151.150;2023-06-01T00:05:58;16.70;99.90
44047;DHT22;29713;-33.888;151.150;2023-06-01T00:08:25;16.80;99.90
44047;DHT22;29713;-33.888;151.150;2023-06-01T00:10:52;16.80;99.90
44047;DHT22;29713;-33.888;151.150;2023-06-01T00:13:20;16.90;99.90
44047;DHT22;29713;-33.888;151.150;2023-06-01T00:15:47;16.90;99.90
44047;DHT22;29713;-33.888;151.150;2023-06-01T00:18:15;17.00;99.90
44047;DHT22;29713;-33.888;151.150;2023-06-01T00:20:42;17.10;99.90
44047;DHT22;29713;-33.888;151.150;2023-06-01T00:23:17;17.20;99.90
44047;DHT22;29713;-33.888;151.150;2023-06-01T00:25:46;17.30;99.90
44047;DHT22;29713;-33.888;151.150;2023-06-01T00:28:14;17.50;99.90
44047;DHT22;29713;-33.888;151.150;2023-06-01T00:30:41;17.60;99.90
44047;DHT22;29713;-33.888;151.150;2023-06-01T00:33:09;17.70;99.90
44047;DHT22;29713;-33.888;151.150;2023-06-01T00:35:36;17.80;99.90
44047;DHT22;29713;-33.888;151.150;2023-06-01T00:38:03;17.80;99.90
44047;DHT22;29713;-33.888;151.150;2023-06-01T00:40:34;17.80;99.90
44047;DHT22;29713;-33.888;151.150;2023-06-01T00:43:01;17.90;99.90
44047;DHT22;29713;-33.888;151.150;2023-06-01T00:45:28;17.80;99.90
44047;DHT22;29713;-33.888;151.150;2023-06-01T00:47:56;17.80;99.90
44047;DHT22;29713;-33.888;151.150;2023-06-01T00:50:24;17.90;99.90
44047;DHT22;29713;-33.888;151.150;2023-06-01T00:52:52;17.80;99.90
44047;DHT22;29713;-33.888;151.150;2023-06-01T00:55:20;17.80;99.90
44047;DHT22;29713;-33.888;151.150;2023-06-01T00:57:49;17.90;99.90
44047;DHT22;29713;-33.888;151.150;2023-06-01T01:00:17;17.90;99.90
44047;DHT22;29713;-33.888;151.150;2023-06-01T01:02:45;17.90;99.90
44047;DHT22;29713;-33.888;151.150;2023-06-01T01:05:18;18.00;99.90
44047;DHT22;29713;-33.888;151.150;2023-06-01T01:08:12;17.90;99.90
44047;DHT22;29713;-33.888;151.150;2023-06-01T01:11:09;18.00;99.90
44047;DHT22;29713;-33.888;151.150;2023-06-01T01:13:50;18.00;99.90
44047;DHT22;29713;-33.888;151.150;2023-06-01T01:16:44;18.00;99.90
44047;DHT22;29713;-33.888;151.150;2023-06-01T01:21:45;18.00;99.90
44047;DHT22;29713;-33.888;151.150;2023-06-01T01:27:28;18.00;99.90
44047;DHT22;29713;-33.888;151.150;2023-06-01T01:30:04;18.00;99.90
44047;DHT22;29713;-33.888;151.150;2023-06-01T01:32:33;18.10;99.90
44047;DHT22;29713;-33.888;151.150;2023-06-01T01:35:02;18.10;99.90
44047;DHT22;29713;-33.888;151.150;2023-06-01T01:37:33;18.10;99.90
44047;DHT22;29713;-33.888;151.150;2023-06-01T01:40:00;18.10;99.90
44047;DHT22;29713;-33.888;151.150;2023-06-01T01:42:28;18.00;99.90
44047;DHT22;29713;-33.888;151.150;2023-06-01T01:44:55;18.10;99.90
44047;DHT22;29713;-33.888;151.150;2023-06-01T01:47:34;18.00;99.90
44047;DHT22;29713;-33.888;151.150;2023-06-01T01:50:06;18.00;99.90
44047;DHT22;29713;-33.888;151.150;2023-06-01T01:52:39;18.00;99.90
44047;DHT22;29713;-33.888;151.150;2023-06-01T01:55:08;18.00;99.90
44047;DHT22;29713;-33.888;151.150;2023-06-01T01:57:38;18.00;99.90
44047;DHT22;29713;-33.888;151.150;2023-06-01T02:00:08;18.10;99.90
44047;DHT22;29713;-33.888;151.150;2023-06-01T02:02:41;18.10;99.90
44047;DHT22;29713;-33.888;151.150;2023-06-01T02:05:11;18.20;99.90
44047;DHT22;29713;-33.888;151.150;2023-06-01T02:07:39;18.20;99.90
44047;DHT22;29713;-33.888;151.150;2023-06-01T02:10:07;18.30;99.90
44047;DHT22;29713;-33.888;151.150;2023-06-01T02:12:36;18.40;99.90
44047;DHT22;29713;-33.888;151.150;2023-06-01T02:15:04;18.50;99.90
44047;DHT22;29713;-33.888;151.150;2023-06-01T02:17:32;18.60;99.90
44047;DHT22;29713;-33.888;151.150;2023-06-01T02:19:59;18.70;99.90
44047;DHT22;29713;-33.888;151.150;2023-06-01T02:22:27;18.70;99.90
44047;DHT22;29713;-33.888;151.150;2023-06-01T02:24:54;18.80;99.90
44047;DHT22;29713;-33.888;151.150;2023-06-01T02:27:21;18.90;99.90
44047;DHT22;29713;-33.888;151.150;2023-06-01T02:29:55;19.00;99.90
44047;DHT22;29713;-33.888;151.150;2023-06-01T02:32:22;19.00;99.90
44047;DHT22;29713;-33.888;151.150;2023-06-01T02:34:50;19.10;99.90
44047;DHT22;29713;-33.888;151.150;2023-06-01T02:37:19;19.10;99.90
44047;DHT22;29713;-33.888;151.150;2023-06-01T02:39:46;19.10;99.90
44047;DHT22;29713;-33.888;151.150;2023-06-01T02:42:14;19.20;99.90
44047;DHT22;29713;-33.888;151.150;2023-06-01T02:44:41;19.30;99.90
44047;DHT22;29713;-33.888;151.150;2023-06-01T02:47:09;19.40;99.90
44047;DHT22;29713;-33.888;151.150;2023-06-01T02:49:36;19.40;99.90
44047;DHT22;29713;-33.888;151.150;2023-06-01T02:52:03;19.40;99.90
44047;DHT22;29713;-33.888;151.150;2023-06-01T02:54:31;19.50;99.90
44047;DHT22;29713;-33.888;151.150;2023-06-01T02:56:58;19.60;99.90
44047;DHT22;29713;-33.888;151.150;2023-06-01T02:59:26;19.60;99.90
44047;DHT22;29713;-33.888;151.150;2023-06-01T03:01:53;19.70;99.90
44047;DHT22;29713;-33.888;151.150;2023-06-01T03:04:20;19.70;99.90
44047;DHT22;29713;-33.888;151.150;2023-06-01T03:06:48;19.70;99.90
44047;DHT22;29713;-33.888;151.150;2023-06-01T03:09:16;19.70;99.90
44047;DHT22;29713;-33.888;151.150;2023-06-01T03:11:43;19.80;99.90
44047;DHT22;29713;-33.888;151.150;2023-06-01T03:14:11;19.80;99.90
44047;DHT22;29713;-33.888;151.150;2023-06-01T03:16:38;19.80;99.90
44047;DHT22;29713;-33.888;151.150;2023-06-01T03:19:06;19.70;99.90
44047;DHT22;29713;-33.888;151.150;2023-06-01T03:21:36;19.80;99.90
44047;DHT22;29713;-33.888;151.150;2023-06-01T03:24:03;19.70;99.90
44047;DHT22;29713;-33.888;151.150;2023-06-01T03:26:31;19.70;99.90
44047;DHT22;29713;-33.888;151.150;2023-06-01T03:28:58;19.70;99.90
44047;DHT22;29713;-33.888;151.150;2023-06-01T03:31:26;19.70;99.90
44047;DHT22;29713;-33.888;151.150;2023-06-01T03:33:53;19.70;99.90
44047;DHT22;29713;-33.888;151.150;2023-06-01T03:36:20;19.80;99.90
44047;DHT22;29713;-33.888;151.150;2023-06-01T03:38:48;19.70;99.90
44047;DHT22;29713;-33.888;151.150;2023-06-01T03:41:16;19.70;99.90
44047;DHT22;29713;-33.888;151.150;2023-06-01T03:43:43;19.70;99.90
44047;DHT22;29713;-33.888;151.150;2023-06-01T03:46:10;19.80;99.90
44047;DHT22;29713;-33.888;151.150;2023-06-01T03:48:38;19.80;99.90
44047;DHT22;29713;-33.888;151.150;2023-06-01T03:51:05;19.90;99.90
44047;DHT22;29713;-33.888;151.150;2023-06-01T03:53:32;19.90;99.90
44047;DHT22;29713;-33.888;151.150;2023-06-01T03:56:01;19.90;99.90
44047;DHT22;29713;-33.888;151.150;2023-06-01T03:58:29;19.90;99.90
44047;DHT22;29713;-33.888;151.150;2023-06-01T04:00:57;19.90;99.90
44047;DHT22;29713;-33.888;151.150;2023-06-01T04:03:25;19.90;99.90
44047;DHT22;29713;-33.888;151.150;2023-06-01T04:05:52;19.90;99.90
44047;DHT22;29713;-33.888;151.150;2023-06-01T04:08:26;19.90;99.90
44047;DHT22;29713;-33.888;151.150;2023-06-01T04:10:53;19.90;99.90
44047;DHT22;29713;-33.888;151.150;2023-06-01T04:13:20;19.90;99.90
44047;DHT22;29713;-33.888;151.150;2023-06-01T04:15:48;19.80;99.90
44047;DHT22;29713;-33.888;151.150;2023-06-01T04:18:15;19.80;99.90
44047;DHT22;29713;-33.888;151.150;2023-06-01T04:20:43;19.80;99.90
44047;DHT22;29713;-33.888;151.150;2023-06-01T04:23:10;19.80;99.90
44047;DHT22;29713;-33.888;151.150;2023-06-01T04:25:37;19.80;99.90
44047;DHT22;29713;-33.888;151.150;2023-06-01T04:28:05;19.90;99.90
44047;DHT22;29713;-33.888;151.150;2023-06-01T04:30:32;19.90;99.90
44047;DHT22;29713;-33.888;151.150;2023-06-01T04:33:00;20.00;99.90
44047;DHT22;29713;-33.888;151.150;2023-06-01T04:35:27;20.00;99.90
44047;DHT22;29713;-33.888;151.150;2023-06-01T04:37:54;20.00;99.90
44047;DHT22;29713;-33.888;151.150;2023-06-01T04:40:22;20.00;99.90
44047;DHT22;29713;-33.888;151.150;2023-06-01T04:42:49;20.00;99.90
44047;DHT22;29713;-33.888;151.150;2023-06-01T04:45:23;20.00;99.90
44047;DHT22;29713;-33.888;151.150;2023-06-01T04:47:52;20.00;99.90
44047;DHT22;29713;-33.888;151.150;2023-06-01T04:50:23;20.00;99.90
44047;DHT22;29713;-33.888;151.150;2023-06-01T04:52:51;20.00;99.90
44047;DHT22;29713;-33.888;151.150;2023-06-01T04:55:18;20.00;99.90
44047;DHT22;29713;-33.888;151.150;2023-06-01T04:57:46;20.00;99.90
44047;DHT22;29713;-33.888;151.150;2023-06-01T05:00:14;20.00;99.90
44047;DHT22;29713;-33.888;151.150;2023-06-01T05:02:45;20.00;99.90
44047;DHT22;29713;-33.888;151.150;2023-06-01T05:05:14;20.00;99.90
44047;DHT22;29713;-33.888;151.150;2023-06-01T05:07:42;20.00;99.90
44047;DHT22;29713;-33.888;151.150;2023-06-01T05:10:12;20.00;99.90
44047;DHT22;29713;-33.888;151.150;2023-06-01T05:12:39;20.00;99.90
44047;DHT22;29713;-33.888;151.150;2023-06-01T05:15:08;20.00;99.90
44047;DHT22;29713;-33.888;151.150;2023-06-01T05:17:37;19.90;99.90
44047;DHT22;29713;-33.888;151.150;2023-06-01T05:20:06;19.90;99.90
44047;DHT22;29713;-33.888;151.150;2023-06-01T05:22:35;19.90;99.90
44047;DHT22;29713;-33.888;151.150;2023-06-01T05:25:03;19.90;99.90
44047;DHT22;29713;-33.888;151.150;2023-06-01T05:27:32;19.90;99.90
44047;DHT22;29713;-33.888;151.150;2023-06-01T05:29:59;19.80;99.90
44047;DHT22;29713;-33.888;151.150;2023-06-01T05:32:27;19.80;99.90
44047;DHT22;29713;-33.888;151.150;2023-06-01T05:34:54;19.70;99.90
44047;DHT22;29713;-33.888;151.150;2023-06-01T05:37:22;19.70;99.90
44047;DHT22;29713;-33.888;151.150;2023-06-01T05:39:49;19.60;99.90
44047;DHT22;29713;-33.888;151.150;2023-06-01T05:42:16;19.60;99.90
44047;DHT22;29713;-33.888;151.150;2023-06-01T05:44:44;19.50;99.90
44047;DHT22;29713;-33.888;151.150;2023-06-01T05:47:11;19.50;99.90
44047;DHT22;29713;-33.888;151.150;2023-06-01T05:49:39;19.40;99.90
44047;DHT22;29713;-33.888;151.150;2023-06-01T05:52:08;19.40;99.90
44047;DHT22;29713;-33.888;151.150;2023-06-01T05:54:36;19.40;99.90
44047;DHT22;29713;-33.888;151.150;2023-06-01T05:57:03;19.40;99.90
44047;DHT22;29713;-33.888;151.150;2023-06-01T05:59:32;19.40;99.90
44047;DHT22;29713;-33.888;151.150;2023-06-01T06:01:59;19.30;99.90
44047;DHT22;29713;-33.888;151.150;2023-06-01T06:04:27;19.30;99.90
44047;DHT22;29713;-33.888;151.150;2023-06-01T06:06:54;19.30;99.90
44047;DHT22;29713;-33.888;151.150;2023-06-01T06:09:21;19.30;99.90
44047;DHT22;29713;-33.888;151.150;2023-06-01T06:11:49;19.30;99.90
44047;DHT22;29713;-33.888;151.150;2023-06-01T06:14:17;19.20;99.90
44047;DHT22;29713;-33.888;151.150;2023-06-01T06:16:44;19.20;99.90
44047;DHT22;29713;-33.888;151.150;2023-06-01T06:19:11;19.10;99.90
44047;DHT22;29713;-33.888;151.150;2023-06-01T06:21:39;19.10;99.90
44047;DHT22;29713;-33.888;151.150;2023-06-01T06:24:07;19.10;99.90
44047;DHT22;29713;-33.888;151.150;2023-06-01T06:26:34;19.00;99.90
44047;DHT22;29713;-33.888;151.150;2023-06-01T06:29:01;19.00;99.90
44047;DHT22;29713;-33.888;151.150;2023-06-01T06:31:29;18.90;99.90
44047;DHT22;29713;-33.888;151.150;2023-06-01T06:33:56;18.80;99.90
44047;DHT22;29713;-33.888;151.150;2023-06-01T06:36:23;18.80;99.90
44047;DHT22;29713;-33.888;151.150;2023-06-01T06:38:51;18.80;99.90
44047;DHT22;29713;-33.888;151.150;2023-06-01T06:41:18;18.70;99.90
44047;DHT22;29713;-33.888;151.150;2023-06-01T06:43:45;18.60;99.90
44047;DHT22;29713;-33.888;151.150;2023-06-01T06:46:13;18.50;99.90
44047;DHT22;29713;-33.888;151.150;2023-06-01T06:48:40;18.50;99.90
44047;DHT22;29713;-33.888;151.150;2023-06-01T06:51:07;18.40;99.90
44047;DHT22;29713;-33.888;151.150;2023-06-01T06:53:34;18.30;99.90
44047;DHT22;29713;-33.888;151.150;2023-06-01T06:56:02;18.20;99.90
44047;DHT22;29713;-33.888;151.150;2023-06-01T06:58:29;18.20;99.90
44047;DHT22;29713;-33.888;151.150;2023-06-01T07:00:57;18.10;99.90
44047;DHT22;29713;-33.888;151.150;2023-06-01T07:03:24;18.00;99.90
44047;DHT22;29713;-33.888;151.150;2023-06-01T07:05:53;17.90;99.90
44047;DHT22;29713;-33.888;151.150;2023-06-01T07:08:21;17.80;99.90
44047;DHT22;29713;-33.888;151.150;2023-06-01T07:10:48;17.70;99.90
44047;DHT22;29713;-33.888;151.150;2023-06-01T07:13:15;17.60;99.90
44047;DHT22;29713;-33.888;151.150;2023-06-01T07:15:42;17.60;99.90
44047;DHT22;29713;-33.888;151.150;2023-06-01T07:18:10;17.50;99.90
44047;DHT22;29713;-33.888;151.150;2023-06-01T07:20:37;17.40;99.90
44047;DHT22;29713;-33.888;151.150;2023-06-01T07:23:04;17.40;99.90
44047;DHT22;29713;-33.888;151.150;2023-06-01T07:25:32;17.30;99.90
44047;DHT22;29713;-33.888;151.150;2023-06-01T07:27:59;17.20;99.90
44047;DHT22;29713;-33.888;151.150;2023-06-01T07:30:34;17.20;99.90
44047;DHT22;29713;-33.888;151.150;2023-06-01T07:33:01;17.10;99.90
44047;DHT22;29713;-33.888;151.150;2023-06-01T07:35:31;17.10;99.90
44047;DHT22;29713;-33.888;151.150;2023-06-01T07:38:00;17.00;99.90
44047;DHT22;29713;-33.888;151.150;2023-06-01T07:40:30;17.00;99.90
44047;DHT22;29713;-33.888;151.150;2023-06-01T07:42:57;17.00;99.90
44047;DHT22;29713;-33.888;151.150;2023-06-01T07:45:26;16.90;99.90
44047;DHT22;29713;-33.888;151.150;2023-06-01T07:47:53;16.90;99.90
44047;DHT22;29713;-33.888;151.150;2023-06-01T07:50:28;16.80;99.90
44047;DHT22;29713;-33.888;151.150;2023-06-01T07:52:58;16.80;99.90
44047;DHT22;29713;-33.888;151.150;2023-06-01T07:55:25;16.70;99.90
44047;DHT22;29713;-33.888;151.150;2023-06-01T07:57:53;16.70;99.90
44047;DHT22;29713;-33.888;151.150;2023-06-01T08:00:20;16.70;99.90
44047;DHT22;29713;-33.888;151.150;2023-06-01T08:02:49;16.60;99.90
44047;DHT22;29713;-33.888;151.150;2023-06-01T08:05:17;16.60;99.90
44047;DHT22;29713;-33.888;151.150;2023-06-01T08:07:45;16.60;99.90
44047;DHT22;29713;-33.888;151.150;2023-06-01T08:10:13;16.50;99.90
44047;DHT22;29713;-33.888;151.150;2023-06-01T08:12:42;16.50;99.90
44047;DHT22;29713;-33.888;151.150;2023-06-01T08:15:10;16.40;99.90
44047;DHT22;29713;-33.888;151.150;2023-06-01T08:17:38;16.40;99.90
44047;DHT22;29713;-33.888;151.150;2023-06-01T08:20:07;16.30;99.90
44047;DHT22;29713;-33.888;151.150;2023-06-01T08:22:37;16.30;99.90
44047;DHT22;29713;-33.888;151.150;2023-06-01T08:25:06;16.30;99.90
44047;DHT22;29713;-33.888;151.150;2023-06-01T08:27:34;16.30;99.90
44047;DHT22;29713;-33.888;151.150;2023-06-01T08:30:01;16.30;99.90
44047;DHT22;29713;-33.888;151.150;2023-06-01T08:32:28;16.20;99.90
44047;DHT22;29713;-33.888;151.150;2023-06-01T08:34:56;16.20;99.90
44047;DHT22;29713;-33.888;151.150;2023-06-01T08:37:24;16.20;99.90
44047;DHT22;29713;-33.888;151.150;2023-06-01T08:39:54;16.10;99.90
44047;DHT22;29713;-33.888;151.150;2023-06-01T08:44:57;16.10;99.90
44047;DHT22;29713;-33.888;151.150;2023-06-01T08:47:25;16.00;99.90
44047;DHT22;29713;-33.888;151.150;2023-06-01T08:49:54;16.00;99.90
44047;DHT22;29713;-33.888;151.150;2023-06-01T08:52:24;16.00;99.90
44047;DHT22;29713;-33.888;151.150;2023-06-01T08:54:55;15.90;99.90
44047;DHT22;29713;-33.888;151.150;2023-06-01T08:57:23;15.90;99.90
44047;DHT22;29713;-33.888;151.150;2023-06-01T08:59:50;15.90;99.90
44047;DHT22;29713;-33.888;151.150;2023-06-01T09:02:18;15.90;99.90
44047;DHT22;29713;-33.888;151.150;2023-06-01T09:04:46;15.90;99.90
44047;DHT22;29713;-33.888;151.150;2023-06-01T09:07:16;15.90;99.90
44047;DHT22;29713;-33.888;151.150;2023-06-01T09:09:45;15.80;99.90
44047;DHT22;29713;-33.888;151.150;2023-06-01T09:12:26;15.80;99.90
44047;DHT22;29713;-33.888;151.150;2023-06-01T09:15:16;15.80;99.90
44047;DHT22;29713;-33.888;151.150;2023-06-01T09:17:47;15.70;99.90
44047;DHT22;29713;-33.888;151.150;2023-06-01T09:20:29;15.70;99.90
44047;DHT22;29713;-33.888;151.150;2023-06-01T09:22:58;15.70;99.90
44047;DHT22;29713;-33.888;151.150;2023-06-01T09:25:31;15.70;99.90
44047;DHT22;29713;-33.888;151.150;2023-06-01T09:28:00;15.70;99.90
44047;DHT22;29713;-33.888;151.150;2023-06-01T09:30:57;15.70;99.90
44047;DHT22;29713;-33.888;151.150;2023-06-01T09:33:25;15.70;99.90
44047;DHT22;29713;-33.888;151.150;2023-06-01T09:35:53;15.60;99.90
44047;DHT22;29713;-33.888;151.150;2023-06-01T09:38:25;15.60;99.90
44047;DHT22;29713;-33.888;151.150;2023-06-01T09:41:00;15.60;99.90
44047;DHT22;29713;-33.888;151.150;2023-06-01T09:43:36;15.60;99.90
44047;DHT22;29713;-33.888;151.150;2023-06-01T09:46:09;15.70;99.90
44047;DHT22;29713;-33.888;151.150;2023-06-01T09:48:38;15.70;99.90
44047;DHT22;29713;-33.888;151.150;2023-06-01T09:51:20;15.80;99.90
44047;DHT22;29713;-33.888;151.150;2023-06-01T09:53:49;15.80;99.90
44047;DHT22;29713;-33.888;151.150;2023-06-01T09:56:17;15.90;99.90
44047;DHT22;29713;-33.888;151.150;2023-06-01T09:58:46;16.00;99.90
44047;DHT22;29713;-33.888;151.150;2023-06-01T10:01:16;16.10;99.90
44047;DHT22;29713;-33.888;151.150;2023-06-01T10:03:45;16.10;99.90
44047;DHT22;29713;-33.888;151.150;2023-06-01T10:06:16;16.10;99.90
44047;DHT22;29713;-33.888;151.150;2023-06-01T10:08:43;16.20;99.90
44047;DHT22;29713;-33.888;151.150;2023-06-01T10:11:11;16.20;99.90
44047;DHT22;29713;-33.888;151.150;2023-06-01T10:13:39;16.30;99.90
44047;DHT22;29713;-33.888;151.150;2023-06-01T10:16:07;16.30;99.90
44047;DHT22;29713;-33.888;151.150;2023-06-01T10:18:36;16.30;99.90
44047;DHT22;29713;-33.888;151.150;2023-06-01T10:21:04;16.30;99.90
44047;DHT22;29713;-33.888;151.150;2023-06-01T10:23:33;16.40;99.90
44047;DHT22;29713;-33.888;151.150;2023-06-01T10:26:07;16.40;99.90
44047;DHT22;29713;-33.888;151.150;2023-06-01T10:28:38;16.40;99.90
44047;DHT22;29713;-33.888;151.150;2023-06-01T10:31:40;16.40;99.90
44047;DHT22;29713;-33.888;151.150;2023-06-01T10:34:12;16.40;99.90
44047;DHT22;29713;-33.888;151.150;2023-06-01T10:39:25;16.30;99.90
44047;DHT22;29713;-33.888;151.150;2023-06-01T10:41:56;16.40;99.90
44047;DHT22;29713;-33.888;151.150;2023-06-01T10:52:30;16.20;99.90
44047;DHT22;29713;-33.888;151.150;2023-06-01T10:57:34;16.10;99.90
44047;DHT22;29713;-33.888;151.150;2023-06-01T11:00:26;16.10;99.90
44047;DHT22;29713;-33.888;151.150;2023-06-01T11:03:04;16.10;99.90
44047;DHT22;29713;-33.888;151.150;2023-06-01T11:05:49;16.10;99.90
44047;DHT22;29713;-33.888;151.150;2023-06-01T11:13:25;16.00;99.90
44047;DHT22;29713;-33.888;151.150;2023-06-01T11:19:01;15.90;99.90
44047;DHT22;29713;-33.888;151.150;2023-06-01T11:21:37;15.80;99.90
44047;DHT22;29713;-33.888;151.150;2023-06-01T11:24:14;15.80;99.90
44047;DHT22;29713;-33.888;151.150;2023-06-01T11:31:45;15.70;99.90
44047;DHT22;29713;-33.888;151.150;2023-06-01T11:34:13;15.60;99.90
44047;DHT22;29713;-33.888;151.150;2023-06-01T11:36:46;15.70;99.90
44047;DHT22;29713;-33.888;151.150;2023-06-01T11:39:24;15.60;99.90
44047;DHT22;29713;-33.888;151.150;2023-06-01T11:42:07;15.50;99.90
44047;DHT22;29713;-33.888;151.150;2023-06-01T11:44:37;15.50;99.90
44047;DHT22;29713;-33.888;151.150;2023-06-01T11:47:06;15.50;99.90
44047;DHT22;29713;-33.888;151.150;2023-06-01T11:49:49;15.50;99.90
44047;DHT22;29713;-33.888;151.150;2023-06-01T11:52:17;15.50;99.90
44047;DHT22;29713;-33.888;151.150;2023-06-01T11:54:45;15.40;99.90
44047;DHT22;29713;-33.888;151.150;2023-06-01T11:57:13;15.40;99.90
44047;DHT22;29713;-33.888;151.150;2023-06-01T11:59:43;15.40;99.90
44047;DHT22;29713;-33.888;151.150;2023-06-01T12:02:21;15.30;99.90
44047;DHT22;29713;-33.888;151.150;2023-06-01T12:05:02;15.30;99.90
44047;DHT22;29713;-33.888;151.150;2023-06-01T12:10:12;15.40;99.90
44047;DHT22;29713;-33.888;151.150;2023-06-01T12:12:44;15.40;99.90
44047;DHT22;29713;-33.888;151.150;2023-06-01T12:15:13;15.40;99.90
44047;DHT22;29713;-33.888;151.150;2023-06-01T12:17:53;15.50;99.90
44047;DHT22;29713;-33.888;151.150;2023-06-01T12:20:35;15.50;99.90
44047;DHT22;29713;-33.888;151.150;2023-06-01T12:23:16;15.50;99.90
44047;DHT22;29713;-33.888;151.150;2023-06-01T12:25:51;15.50;99.90
44047;DHT22;29713;-33.888;151.150;2023-06-01T12:28:19;15.50;99.90
44047;DHT22;29713;-33.888;151.150;2023-06-01T12:30:47;15.50;99.90
44047;DHT22;29713;-33.888;151.150;2023-06-01T12:33:35;15.60;99.90
44047;DHT22;29713;-33.888;151.150;2023-06-01T12:36:03;15.60;99.90
44047;DHT22;29713;-33.888;151.150;2023-06-01T12:38:36;15.60;99.90
44047;DHT22;29713;-33.888;151.150;2023-06-01T12:41:08;15.60;99.90
44047;DHT22;29713;-33.888;151.150;2023-06-01T12:43:46;15.50;99.90
44047;DHT22;29713;-33.888;151.150;2023-06-01T12:46:19;15.50;99.90
44047;DHT22;29713;-33.888;151.150;2023-06-01T12:48:51;15.40;99.90
44047;DHT22;29713;-33.888;151.150;2023-06-01T12:51:19;15.30;99.90
44047;DHT22;29713;-33.888;151.150;2023-06-01T12:53:47;15.30;99.90
44047;DHT22;29713;-33.888;151.150;2023-06-01T12:56:15;15.20;99.90
44047;DHT22;29713;-33.888;151.150;2023-06-01T12:58:42;15.20;99.90
44047;DHT22;29713;-33.888;151.150;2023-06-01T13:01:10;15.20;99.90
44047;DHT22;29713;-33.888;151.150;2023-06-01T13:03:37;15.20;99.90
44047;DHT22;29713;-33.888;151.150;2023-06-01T13:06:05;15.20;99.90
44047;DHT22;29713;-33.888;151.150;2023-06-01T13:08:33;15.20;99.90
44047;DHT22;29713;-33.888;151.150;2023-06-01T13:11:00;15.20;99.90
44047;DHT22;29713;-33.888;151.150;2023-06-01T13:13:28;15.20;99.90
44047;DHT22;29713;-33.888;151.150;2023-06-01T13:15:56;15.20;99.90
44047;DHT22;29713;-33.888;151.150;2023-06-01T13:18:23;15.10;99.90
44047;DHT22;29713;-33.888;151.150;2023-06-01T13:20:50;15.00;99.90
44047;DHT22;29713;-33.888;151.150;2023-06-01T13:23:18;15.00;99.90
44047;DHT22;29713;-33.888;151.150;2023-06-01T13:25:46;14.90;99.90
44047;DHT22;29713;-33.888;151.150;2023-06-01T13:28:13;14.90;99.90
44047;DHT22;29713;-33.888;151.150;2023-06-01T13:30:42;14.80;99.90
44047;DHT22;29713;-33.888;151.150;2023-06-01T13:33:10;14.80;99.90
44047;DHT22;29713;-33.888;151.150;2023-06-01T13:35:37;14.80;99.90
44047;DHT22;29713;-33.888;151.150;2023-06-01T13:38:04;14.80;99.90
44047;DHT22;29713;-33.888;151.150;2023-06-01T13:40:34;14.70;99.90
44047;DHT22;29713;-33.888;151.150;2023-06-01T13:43:02;14.70;99.90
44047;DHT22;29713;-33.888;151.150;2023-06-01T13:45:32;14.70;99.90
44047;DHT22;29713;-33.888;151.150;2023-06-01T13:48:01;14.60;99.90
44047;DHT22;29713;-33.888;151.150;2023-06-01T13:50:28;14.60;99.90
44047;DHT22;29713;-33.888;151.150;2023-06-01T13:52:56;14.60;99.90
44047;DHT22;29713;-33.888;151.150;2023-06-01T13:55:23;14.60;99.90
44047;DHT22;29713;-33.888;151.150;2023-06-01T13:57:54;14.60;99.90
44047;DHT22;29713;-33.888;151.150;2023-06-01T14:00:25;14.60;99.90
44047;DHT22;29713;-33.888;151.150;2023-06-01T14:02:54;14.50;99.90
44047;DHT22;29713;-33.888;151.150;2023-06-01T14:05:21;14.50;99.90
44047;DHT22;29713;-33.888;151.150;2023-06-01T14:07:48;14.50;99.90
44047;DHT22;29713;-33.888;151.150;2023-06-01T14:10:16;14.50;99.90
44047;DHT22;29713;-33.888;151.150;2023-06-01T14:12:44;14.50;99.90
44047;DHT22;29713;-33.888;151.150;2023-06-01T14:15:11;14.50;99.90
44047;DHT22;29713;-33.888;151.150;2023-06-01T14:17:39;14.50;99.90
44047;DHT22;29713;-33.888;151.150;2023-06-01T14:20:06;14.40;99.90
44047;DHT22;29713;-33.888;151.150;2023-06-01T14:22:34;14.40;99.90
44047;DHT22;29713;-33.888;151.150;2023-06-01T14:25:02;14.40;99.90
44047;DHT22;29713;-33.888;151.150;2023-06-01T14:27:29;14.30;99.90
44047;DHT22;29713;-33.888;151.150;2023-06-01T14:29:56;14.30;99.90
44047;DHT22;29713;-33.888;151.150;2023-06-01T14:32:24;14.30;99.90
44047;DHT22;29713;-33.888;151.150;2023-06-01T14:34:51;14.40;99.90
44047;DHT22;29713;-33.888;151.150;2023-06-01T14:37:18;14.30;99.90
44047;DHT22;29713;-33.888;151.150;2023-06-01T14:39:46;14.30;99.90
44047;DHT22;29713;-33.888;151.150;2023-06-01T14:42:13;14.30;99.90
44047;DHT22;29713;-33.888;151.150;2023-06-01T14:44:40;14.20;99.90
44047;DHT22;29713;-33.888;151.150;2023-06-01T14:47:08;14.30;99.90
44047;DHT22;29713;-33.888;151.150;2023-06-01T14:49:38;14.20;99.90
44047;DHT22;29713;-33.888;151.150;2023-06-01T14:52:06;14.20;99.90
44047;DHT22;29713;-33.888;151.150;2023-06-01T14:54:33;14.20;99.90
44047;DHT22;29713;-33.888;151.150;2023-06-01T14:57:03;14.20;99.90
44047;DHT22;29713;-33.888;151.150;2023-06-01T14:59:31;14.10;99.90
44047;DHT22;29713;-33.888;151.150;2023-06-01T15:01:59;14.10;99.90
44047;DHT22;29713;-33.888;151.150;2023-06-01T15:04:31;14.10;99.90
44047;DHT22;29713;-33.888;151.150;2023-06-01T15:06:58;14.10;99.90
44047;DHT22;29713;-33.888;151.150;2023-06-01T15:09:26;14.00;99.90
44047;DHT22;29713;-33.888;151.150;2023-06-01T15:11:53;14.00;99.90
44047;DHT22;29713;-33.888;151.150;2023-06-01T15:14:23;14.00;99.90
44047;DHT22;29713;-33.888;151.150;2023-06-01T15:16:50;13.90;99.90
44047;DHT22;29713;-33.888;151.150;2023-06-01T15:19:17;14.00;99.90
44047;DHT22;29713;-33.888;151.150;2023-06-01T15:21:45;13.90;99.90
44047;DHT22;29713;-33.888;151.150;2023-06-01T15:24:12;13.90;99.90
44047;DHT22;29713;-33.888;151.150;2023-06-01T15:26:39;13.90;99.90
44047;DHT22;29713;-33.888;151.150;2023-06-01T15:29:08;13.90;99.90
44047;DHT22;29713;-33.888;151.150;2023-06-01T15:31:35;13.90;99.90
44047;DHT22;29713;-33.888;151.150;2023-06-01T15:34:02;13.90;99.90
44047;DHT22;29713;-33.888;151.150;2023-06-01T15:36:31;13.90;99.90
44047;DHT22;29713;-33.888;151.150;2023-06-01T15:39:00;14.00;99.90